Time;durP1;ratioP1;P1;durP2;ratioP2;P2;SDS_P1;SDS_P2;PMS_P1;PMS_P2;Temp;Humidity;BMP_temperature;BMP_pressure;BME280_temperature;BME280_humidity;BME280_pressure;Samples;Min_cycle;Max_cycle;Signal;HPM_P1;HPM_P2
2023/10/10 00:00:46;;;;;;;44.72;30.52;;;15.20;99.90;;;;;;2090407;28;20031;-76
2023/10/10 00:01:48;;;;;;;48.03;30.85;;;15.20;99.90;;;;;;2091606;28;20036;-76
2023/10/10 00:02:50;;;;;;;44.85;30.00;;;15.20;99.90;;;;;;2078650;28;20056;-76
2023/10/10 00:03:50;;;;;;;45.15;30.52;;;15.20;99.90;;;;;;2082657;28;20032;-76
2023/10/10 00:04:51;;;;;;;44.53;30.75;;;15.20;99.90;;;;;;2090874;28;20538;-76
2023/10/10 00:05:52;;;;;;;43.78;30.83;;;15.20;99.90;;;;;;2098164;28;20119;-74
2023/10/10 00:06:52;;;;;;;46.60;31.60;;;15.20;99.90;;;;;;2091163;28;20266;-76
2023/10/10 00:33:58;;;;;;;45.28;29.98;;;15.20;99.90;;;;;;2082118;28;20301;-74
2023/10/10 00:34:59;;;;;;;45.83;30.40;;;15.20;99.90;;;;;;2079988;28;20029;-75
2023/10/10 00:35:59;;;;;;;44.08;30.13;;;15.20;99.90;;;;;;2084458;28;20071;-74
2023/10/10 00:37:07;;;;;;;48.22;31.23;;;15.20;99.90;;;;;;2082108;28;20589;-75
2023/10/10 00:38:11;;;;;;;45.92;30.90;;;15.20;99.90;;;;;;2075131;28;20033;-75
2023/10/10 00:40:25;;;;;;;41.83;29.45;;;15.20;99.90;;;;;;2090949;28;20032;-76
2023/10/10 00:41:26;;;;;;;40.05;29.23;;;15.10;99.90;;;;;;2089066;28;20027;-76
2023/10/10 00:42:40;;;;;;;45.50;29.50;;;15.10;99.90;;;;;;2098512;28;20266;-76
2023/10/10 00:43:42;;;;;;;43.28;29.98;;;15.10;99.90;;;;;;2098409;28;20125;-76
2023/10/10 00:44:43;;;;;;;42.75;30.17;;;15.10;99.90;;;;;;2092104;28;20111;-76
2023/10/10 00:45:51;;;;;;;43.17;30.33;;;15.10;99.90;;;;;;2081914;28;20051;-78
2023/10/10 00:46:56;;;;;;;44.05;29.90;;;15.10;99.90;;;;;;2083761;28;20021;-75
2023/10/10 00:48:00;;;;;;;48.13;31.23;;;15.10;99.90;;;;;;2095262;28;20032;-75
2023/10/10 00:49:01;;;;;;;44.58;31.10;;;15.10;99.90;;;;;;2083561;28;20088;-76
2023/10/10 00:50:02;;;;;;;45.22;31.23;;;15.10;99.90;;;;;;2084541;28;20167;-76
2023/10/10 00:51:05;;;;;;;44.72;30.73;;;15.10;99.90;;;;;;2092758;28;20063;-76
2023/10/10 00:52:06;;;;;;;44.17;30.27;;;15.10;99.90;;;;;;2086344;28;20029;-75
2023/10/10 00:53:11;;;;;;;43.63;30.48;;;15.10;99.90;;;;;;2087905;28;20487;-75
2023/10/10 00:55:24;;;;;;;45.55;31.55;;;15.10;99.90;;;;;;2084639;28;20082;-75
2023/10/10 00:56:29;;;;;;;39.65;29.50;;;15.10;99.90;;;;;;2085253;28;20514;-76
2023/10/10 00:57:35;;;;;;;40.50;28.92;;;15.10;99.90;;;;;;2082468;28;20135;-76
2023/10/10 00:58:37;;;;;;;41.50;29.20;;;15.10;99.90;;;;;;2081432;28;20032;-75
2023/10/10 00:59:48;;;;;;;39.75;28.77;;;15.10;99.90;;;;;;2077813;28;20029;-74
2023/10/10 01:00:52;;;;;;;40.95;29.10;;;15.10;99.90;;;;;;2080748;28;20148;-75
2023/10/10 01:01:53;;;;;;;37.55;26.38;;;15.10;99.90;;;;;;2082574;28;20036;-74
2023/10/10 01:02:56;;;;;;;38.92;27.70;;;15.20;99.90;;;;;;2082670;28;20268;-75
2023/10/10 01:03:57;;;;;;;38.58;27.55;;;15.10;99.90;;;;;;2093897;28;20373;-74
2023/10/10 01:05:04;;;;;;;38.97;28.25;;;15.10;99.90;;;;;;2092279;28;20086;-74
2023/10/10 01:06:16;;;;;;;40.30;27.52;;;15.10;99.90;;;;;;2093201;28;20127;-74
2023/10/10 01:07:21;;;;;;;39.47;27.85;;;15.10;99.90;;;;;;2095119;28;20029;-75
2023/10/10 01:08:31;;;;;;;39.35;27.92;;;15.10;99.90;;;;;;2086352;28;20023;-75
2023/10/10 01:09:33;;;;;;;39.17;26.65;;;15.10;99.90;;;;;;2091030;28;20644;-75
2023/10/10 01:10:43;;;;;;;38.47;26.92;;;15.10;99.90;;;;;;2081942;28;20130;-76
2023/10/10 01:11:48;;;;;;;35.05;25.75;;;15.10;99.90;;;;;;2087607;28;20029;-76
2023/10/10 01:12:48;;;;;;;32.58;23.98;;;15.10;99.90;;;;;;2095389;28;20495;-76
2023/10/10 01:13:52;;;;;;;32.90;24.50;;;15.10;99.90;;;;;;2082915;28;20064;-74
2023/10/10 01:14:55;;;;;;;32.10;24.92;;;15.10;99.90;;;;;;2076638;28;20567;-74
2023/10/10 01:15:57;;;;;;;32.55;24.63;;;15.10;99.90;;;;;;2088446;28;20451;-74
2023/10/10 01:16:58;;;;;;;32.65;23.52;;;15.10;99.90;;;;;;2092003;28;20036;-74
2023/10/10 01:17:58;;;;;;;30.23;23.23;;;15.10;99.90;;;;;;2084000;28;20037;-73
2023/10/10 01:18:59;;;;;;;32.80;23.52;;;15.10;99.90;;;;;;2086619;28;20036;-76
2023/10/10 01:20:09;;;;;;;33.78;23.48;;;15.10;99.90;;;;;;2094214;28;20120;-75
2023/10/10 01:21:18;;;;;;;29.77;22.05;;;15.10;99.90;;;;;;2093292;28;20477;-73
2023/10/10 01:22:22;;;;;;;34.10;23.35;;;15.10;99.90;;;;;;2093774;28;20039;-74
2023/10/10 01:23:27;;;;;;;28.42;21.83;;;15.10;99.90;;;;;;2082127;28;20115;-74
2023/10/10 01:24:31;;;;;;;32.38;22.73;;;15.10;99.90;;;;;;2087251;28;20024;-73
2023/10/10 01:26:38;;;;;;;29.45;21.55;;;15.10;99.90;;;;;;2092609;28;20111;-75
2023/10/10 01:27:39;;;;;;;31.50;22.15;;;15.10;99.90;;;;;;2094383;28;20024;-76
2023/10/10 01:28:41;;;;;;;29.02;21.73;;;15.10;99.90;;;;;;2099751;28;20035;-75
2023/10/10 01:29:50;;;;;;;29.13;21.83;;;15.10;99.90;;;;;;2087240;28;20120;-76
2023/10/10 01:30:59;;;;;;;29.95;22.77;;;15.10;99.90;;;;;;2080740;28;20032;-75
2023/10/10 01:32:02;;;;;;;29.70;21.55;;;15.00;99.90;;;;;;2087646;28;20040;-75
2023/10/10 01:33:03;;;;;;;29.90;21.63;;;15.00;99.90;;;;;;2085576;28;20017;-76
2023/10/10 01:34:09;;;;;;;30.70;21.40;;;15.00;99.90;;;;;;2075302;28;20030;-76
2023/10/10 01:35:15;;;;;;;29.85;21.50;;;15.00;99.90;;;;;;2080573;28;20063;-76
2023/10/10 01:36:19;;;;;;;29.08;21.58;;;15.00;99.90;;;;;;2088242;28;20495;-76
2023/10/10 01:38:27;;;;;;;28.00;21.30;;;15.00;99.90;;;;;;2096509;28;20048;-75
2023/10/10 01:40:16;;;;;;;27.38;21.40;;;15.00;99.90;;;;;;2087435;28;20037;-76
2023/10/10 01:41:24;;;;;;;26.13;20.63;;;15.00;99.90;;;;;;2088106;28;20119;-74
2023/10/10 01:42:38;;;;;;;28.58;20.63;;;15.00;99.90;;;;;;2081051;28;20021;-74
2023/10/10 01:43:45;;;;;;;28.40;21.08;;;15.00;99.90;;;;;;2098021;28;20046;-75
2023/10/10 01:44:47;;;;;;;27.35;21.38;;;15.00;99.90;;;;;;2099909;28;20036;-75
2023/10/10 01:46:08;;;;;;;28.65;19.85;;;15.00;99.90;;;;;;2083860;28;20047;-75
2023/10/10 01:47:18;;;;;;;27.98;19.90;;;15.00;99.90;;;;;;2079655;28;20665;-76
2023/10/10 01:48:23;;;;;;;30.75;20.63;;;15.00;99.90;;;;;;2085452;28;20048;-75
2023/10/10 01:49:29;;;;;;;26.92;19.63;;;15.00;99.90;;;;;;2092694;28;20039;-75
2023/10/10 01:50:33;;;;;;;30.50;20.70;;;15.00;99.90;;;;;;2100579;28;20078;-74
2023/10/10 01:51:34;;;;;;;26.80;20.27;;;15.00;99.90;;;;;;2083003;28;20091;-75
2023/10/10 01:52:43;;;;;;;26.00;19.20;;;15.00;99.90;;;;;;2079481;28;20030;-74
2023/10/10 01:53:44;;;;;;;29.63;20.25;;;15.00;99.90;;;;;;2085149;28;20123;-75
2023/10/10 01:54:46;;;;;;;30.50;21.25;;;15.00;99.90;;;;;;2084336;28;20246;-75
2023/10/10 01:55:47;;;;;;;27.10;20.70;;;15.00;99.90;;;;;;2090873;28;20700;-75
2023/10/10 01:56:51;;;;;;;29.85;20.38;;;15.00;99.90;;;;;;2083129;28;20459;-74
2023/10/10 01:57:53;;;;;;;24.52;19.67;;;15.00;99.90;;;;;;2071527;28;20104;-74
2023/10/10 01:58:54;;;;;;;27.85;20.13;;;15.00;99.90;;;;;;2083263;28;20078;-74
2023/10/10 01:59:57;;;;;;;29.00;20.85;;;15.00;99.90;;;;;;2083036;28;20566;-74
2023/10/10 02:00:58;;;;;;;28.73;20.13;;;15.00;99.90;;;;;;2090876;28;20024;-73
2023/10/10 02:01:59;;;;;;;28.25;20.67;;;15.00;99.90;;;;;;2084025;28;20056;-74
2023/10/10 02:02:59;;;;;;;29.90;20.92;;;15.00;99.90;;;;;;2079006;28;20545;-75
2023/10/10 02:04:05;;;;;;;28.58;20.17;;;15.00;99.90;;;;;;2078211;28;20021;-76
2023/10/10 02:05:11;;;;;;;27.08;20.17;;;15.00;99.90;;;;;;2087422;28;20048;-75
2023/10/10 02:06:25;;;;;;;29.27;20.65;;;15.00;99.90;;;;;;2086578;28;20029;-75
2023/10/10 02:07:31;;;;;;;31.08;20.88;;;15.00;99.90;;;;;;2083113;28;20625;-75
2023/10/10 02:08:34;;;;;;;28.35;20.90;;;15.00;99.90;;;;;;2078383;28;20029;-75
2023/10/10 02:09:37;;;;;;;26.02;19.52;;;15.00;99.90;;;;;;2081527;28;20036;-74
2023/10/10 02:10:46;;;;;;;27.50;20.02;;;15.00;99.90;;;;;;2087480;28;20533;-75
2023/10/10 02:11:55;;;;;;;28.98;19.40;;;15.00;99.90;;;;;;2074903;28;20377;-76
2023/10/10 02:12:59;;;;;;;28.33;19.42;;;15.00;99.90;;;;;;2084110;28;20032;-75
2023/10/10 02:14:02;;;;;;;27.88;19.52;;;15.00;99.90;;;;;;2090346;28;20127;-75
2023/10/10 02:15:05;;;;;;;27.48;19.85;;;15.00;99.90;;;;;;2088887;28;20467;-75
2023/10/10 02:16:11;;;;;;;26.75;20.00;;;15.00;99.90;;;;;;2081894;28;20048;-75
2023/10/10 02:17:26;;;;;;;25.45;19.52;;;15.00;99.90;;;;;;2084486;28;20398;-75
2023/10/10 02:18:40;;;;;;;27.92;19.13;;;15.00;99.90;;;;;;2085534;28;20128;-74
2023/10/10 02:19:41;;;;;;;23.65;18.38;;;15.00;99.90;;;;;;2098896;28;20047;-75
2023/10/10 02:21:44;;;;;;;25.10;19.15;;;15.00;99.90;;;;;;2087369;28;20388;-76
2023/10/10 02:22:53;;;;;;;28.00;19.92;;;15.00;99.90;;;;;;2096345;28;20361;-76
2023/10/10 02:23:54;;;;;;;26.85;19.67;;;15.00;99.90;;;;;;2091407;28;20035;-75
2023/10/10 02:26:23;;;;;;;26.05;19.45;;;15.00;99.90;;;;;;2081377;28;20079;-76
2023/10/10 02:27:32;;;;;;;27.35;19.40;;;15.00;99.90;;;;;;2079758;28;20025;-76
2023/10/10 02:28:49;;;;;;;28.33;19.38;;;15.00;99.90;;;;;;2092118;28;20696;-76
2023/10/10 02:29:49;;;;;;;26.88;19.17;;;15.00;99.90;;;;;;2099723;28;20071;-76
2023/10/10 02:30:52;;;;;;;26.55;19.73;;;15.00;99.90;;;;;;2100522;28;20507;-76
2023/10/10 02:32:13;;;;;;;26.33;18.77;;;15.00;99.90;;;;;;2096463;28;20024;-76
2023/10/10 02:34:20;;;;;;;27.05;19.48;;;15.00;99.90;;;;;;2096624;28;20031;-76
2023/10/10 02:35:27;;;;;;;24.88;19.13;;;15.00;99.90;;;;;;2099892;28;20036;-76
2023/10/10 02:36:30;;;;;;;25.00;18.00;;;15.00;99.90;;;;;;2088891;28;20027;-76
2023/10/10 02:37:45;;;;;;;27.83;18.73;;;15.00;99.90;;;;;;2087055;28;20037;-76
2023/10/10 02:38:56;;;;;;;25.83;18.88;;;15.00;99.90;;;;;;2090543;28;20021;-76
2023/10/10 02:40:06;;;;;;;26.73;19.23;;;15.00;99.90;;;;;;2088261;28;20029;-75
2023/10/10 02:41:38;;;;;;;23.92;18.15;;;15.00;99.90;;;;;;2092937;28;20053;-76
2023/10/10 02:42:38;;;;;;;23.48;18.58;;;15.00;99.90;;;;;;2098041;28;20397;-76
2023/10/10 02:43:56;;;;;;;25.02;18.27;;;15.00;99.90;;;;;;2086857;28;20061;-76
2023/10/10 02:44:59;;;;;;;25.20;19.08;;;15.00;99.90;;;;;;2089360;28;20013;-76
2023/10/10 02:46:00;;;;;;;22.67;17.83;;;15.00;99.90;;;;;;2089941;28;20466;-76
2023/10/10 02:47:01;;;;;;;24.50;17.95;;;15.00;99.90;;;;;;2086861;28;20547;-81
2023/10/10 02:48:07;;;;;;;26.48;18.17;;;15.00;99.90;;;;;;2074703;28;20033;-80
2023/10/10 02:49:13;;;;;;;29.58;18.52;;;15.00;99.90;;;;;;2074147;28;20026;-80
2023/10/10 02:50:38;;;;;;;24.02;17.48;;;15.00;99.90;;;;;;2080886;28;20474;-69
2023/10/10 02:51:45;;;;;;;23.92;17.70;;;15.00;99.90;;;;;;2080871;28;20037;-71
2023/10/10 02:52:45;;;;;;;;;;;15.00;99.90;;;;;;2087567;28;20428;-71
2023/10/10 02:53:46;;;;;;;24.92;16.90;;;15.00;99.90;;;;;;2096301;28;20006;-71
2023/10/10 02:54:56;;;;;;;24.20;17.40;;;15.00;99.90;;;;;;2087762;28;20142;-71
2023/10/10 02:56:01;;;;;;;22.10;16.65;;;15.00;99.90;;;;;;2084512;28;20017;-71
2023/10/10 02:58:28;;;;;;;24.77;17.30;;;15.00;99.90;;;;;;2091934;28;20380;-71
2023/10/10 02:59:31;;;;;;;24.33;17.58;;;15.00;99.90;;;;;;2082844;28;20651;-72
2023/10/10 03:00:34;;;;;;;22.58;16.73;;;15.00;99.90;;;;;;2065444;28;20473;-71
2023/10/10 03:01:56;;;;;;;24.50;17.27;;;15.00;99.90;;;;;;2088601;28;20301;-72
2023/10/10 03:02:58;;;;;;;22.00;16.20;;;15.00;99.90;;;;;;2075203;28;20071;-72
2023/10/10 03:03:59;;;;;;;22.33;16.17;;;15.00;99.90;;;;;;2066548;28;20836;-72
2023/10/10 03:06:06;;;;;;;19.95;16.30;;;15.00;99.90;;;;;;2084335;28;20468;-72
2023/10/10 03:07:07;;;;;;;22.45;16.33;;;15.00;99.90;;;;;;2086762;28;20029;-73
2023/10/10 03:08:51;;;;;;;24.73;16.45;;;15.00;99.90;;;;;;2081255;28;20059;-79
2023/10/10 03:09:42;;;;;;;21.35;16.92;;;15.00;99.90;;;;;;2074060;28;20028;-79
2023/10/10 03:10:46;;;;;;;23.17;16.13;;;15.00;99.90;;;;;;2082428;28;20025;-79
2023/10/10 03:11:53;;;;;;;21.08;16.05;;;15.00;99.90;;;;;;2084586;28;20102;-79
2023/10/10 03:13:05;;;;;;;23.60;16.58;;;15.00;99.90;;;;;;2084923;28;20017;-79
2023/10/10 03:14:13;;;;;;;20.08;15.88;;;15.00;99.90;;;;;;2073390;28;20120;-79
2023/10/10 03:17:43;;;;;;;22.02;16.25;;;15.00;99.90;;;;;;2082771;28;20075;-79
2023/10/10 03:20:24;;;;;;;22.48;17.63;;;15.00;99.90;;;;;;2090000;28;20052;-79
2023/10/10 03:21:43;;;;;;;21.60;16.20;;;15.00;99.90;;;;;;2095219;28;20040;-78
2023/10/10 03:23:08;;;;;;;23.02;16.25;;;15.00;99.90;;;;;;2088481;28;20510;-79
2023/10/10 03:24:36;;;;;;;21.23;15.63;;;15.00;99.90;;;;;;2091647;28;20047;-79
2023/10/10 03:28:18;;;;;;;20.73;15.60;;;15.00;99.90;;;;;;2084524;28;20570;-79
2023/10/10 03:29:47;;;;;;;19.92;15.73;;;15.00;99.90;;;;;;2085825;28;20027;-79
2023/10/10 03:31:04;;;;;;;23.05;16.23;;;15.00;99.90;;;;;;2076730;28;20082;-79
2023/10/10 03:33:37;;;;;;;22.58;16.60;;;15.00;99.90;;;;;;2080841;28;20040;-79
2023/10/10 03:34:44;;;;;;;24.02;17.20;;;14.90;99.90;;;;;;2080083;28;20148;-79
2023/10/10 03:35:58;;;;;;;26.30;17.15;;;14.90;99.90;;;;;;2083989;28;20032;-79
2023/10/10 03:37:20;;;;;;;22.52;16.77;;;14.90;99.90;;;;;;2076398;28;20086;-79
2023/10/10 03:39:49;;;;;;;23.27;17.52;;;15.00;99.90;;;;;;2094945;28;20028;-79
2023/10/10 05:24:42;;;;;;;15.07;10.10;;;15.00;99.90;;;;;;2095170;28;20054;-74
2023/10/10 05:25:43;;;;;;;12.73;8.98;;;15.00;99.90;;;;;;2099372;28;20028;-74
2023/10/10 05:26:47;;;;;;;15.02;9.07;;;15.00;99.90;;;;;;2089222;28;20029;-74
2023/10/10 05:27:48;;;;;;;10.93;8.70;;;15.00;99.90;;;;;;2095825;28;20245;-76
2023/10/10 05:28:48;;;;;;;17.10;9.35;;;15.00;99.90;;;;;;2098503;28;20040;-78
2023/10/10 05:29:50;;;;;;;12.23;9.25;;;15.00;99.90;;;;;;2086201;28;20057;-78
2023/10/10 05:30:55;;;;;;;12.90;9.20;;;15.00;99.90;;;;;;2080734;28;20480;-77
2023/10/10 05:31:59;;;;;;;14.60;9.20;;;15.00;99.90;;;;;;2085425;28;20504;-75
2023/10/10 05:33:03;;;;;;;15.75;9.30;;;15.00;99.90;;;;;;2080212;28;20031;-77
2023/10/10 05:34:03;;;;;;;11.90;9.05;;;15.00;99.90;;;;;;2073320;28;20029;-77
2023/10/10 05:35:11;;;;;;;13.18;9.05;;;15.00;99.90;;;;;;2080782;28;20017;-80
2023/10/10 05:36:13;;;;;;;11.65;8.88;;;15.00;99.90;;;;;;2081960;28;20495;-79
2023/10/10 05:37:15;;;;;;;15.05;8.48;;;14.90;99.90;;;;;;2093263;28;20024;-82
2023/10/10 05:38:16;;;;;;;12.98;8.73;;;15.00;99.90;;;;;;2090912;28;20297;-76
2023/10/10 05:39:21;;;;;;;12.38;8.95;;;14.90;99.90;;;;;;2089032;28;20118;-79
2023/10/10 05:40:24;;;;;;;13.45;8.75;;;14.90;99.90;;;;;;2093239;28;20036;-78
2023/10/10 05:41:25;;;;;;;12.23;8.43;;;15.00;99.90;;;;;;2093026;28;20424;-75
2023/10/10 05:42:33;;;;;;;13.45;8.63;;;14.90;99.90;;;;;;2087608;28;20021;-79
2023/10/10 05:43:34;;;;;;;13.40;8.45;;;15.00;99.90;;;;;;2089861;28;20029;-79
2023/10/10 05:44:38;;;;;;;11.40;8.40;;;14.90;99.90;;;;;;2101310;28;20032;-78
2023/10/10 05:45:39;;;;;;;14.18;8.63;;;14.90;99.90;;;;;;2101372;28;20020;-87
2023/10/10 05:46:40;;;;;;;12.85;8.57;;;14.90;99.90;;;;;;2099072;28;20024;-85
2023/10/10 05:47:40;;;;;;;11.10;8.60;;;14.90;99.90;;;;;;2089368;28;20047;-84
2023/10/10 05:48:41;;;;;;;15.10;9.00;;;14.90;99.90;;;;;;2068121;28;20262;-85
2023/10/10 05:49:41;;;;;;;15.48;8.70;;;15.00;99.90;;;;;;2077700;28;20040;-79
2023/10/10 05:50:42;;;;;;;12.43;8.85;;;15.00;99.90;;;;;;2093046;28;20032;-80
2023/10/10 05:51:43;;;;;;;12.77;8.35;;;15.00;99.90;;;;;;2092196;28;20480;-80
2023/10/10 05:52:44;;;;;;;15.75;9.20;;;15.00;99.90;;;;;;2082036;28;20598;-79
2023/10/10 05:53:46;;;;;;;13.60;8.57;;;15.00;99.90;;;;;;2086631;28;20027;-80
2023/10/10 05:54:46;;;;;;;14.00;8.13;;;15.00;99.90;;;;;;2091848;28;20060;-80
2023/10/10 05:55:53;;;;;;;16.10;8.88;;;15.00;99.90;;;;;;2089145;28;20115;-87
2023/10/10 05:56:53;;;;;;;14.48;8.40;;;15.00;99.90;;;;;;2078868;28;20033;-81
2023/10/10 05:57:57;;;;;;;13.05;8.43;;;15.00;99.90;;;;;;2089735;28;20055;-82
2023/10/10 05:58:58;;;;;;;18.20;8.55;;;15.00;99.90;;;;;;2083872;28;20033;-75
2023/10/10 05:59:58;;;;;;;14.32;8.23;;;15.00;99.90;;;;;;2073099;28;20143;-78
2023/10/10 06:00:59;;;;;;;11.75;8.77;;;15.10;99.90;;;;;;2080373;28;20064;-77
2023/10/10 06:02:01;;;;;;;14.88;8.60;;;15.10;99.90;;;;;;2082557;28;20134;-80
2023/10/10 06:03:05;;;;;;;15.40;8.57;;;15.10;99.90;;;;;;2097585;28;20016;-85
2023/10/10 06:04:07;;;;;;;12.93;8.35;;;15.10;99.90;;;;;;2092714;28;20499;-84
2023/10/10 06:05:12;;;;;;;11.15;7.85;;;15.10;99.90;;;;;;2088183;28;20028;-81
2023/10/10 06:06:13;;;;;;;10.43;7.78;;;15.10;99.90;;;;;;2080822;28;20029;-84
2023/10/10 06:07:15;;;;;;;15.23;8.75;;;15.10;99.90;;;;;;2086896;28;20187;-83
2023/10/10 06:08:16;;;;;;;15.00;8.65;;;15.10;99.90;;;;;;2085253;28;20040;-79
2023/10/10 06:09:20;;;;;;;12.35;8.70;;;15.20;99.90;;;;;;2096804;28;20320;-85
2023/10/10 06:10:28;;;;;;;10.43;8.10;;;15.20;99.90;;;;;;2086325;28;20075;-80
2023/10/10 06:11:31;;;;;;;12.02;7.82;;;15.20;99.90;;;;;;2092053;28;20041;-83
2023/10/10 06:12:33;;;;;;;12.73;7.78;;;15.20;99.90;;;;;;2084629;28;20503;-86
2023/10/10 06:13:39;;;;;;;14.25;7.65;;;15.20;99.90;;;;;;2084045;28;20445;-84
2023/10/10 06:14:42;;;;;;;16.02;8.25;;;15.20;99.90;;;;;;2097212;28;20046;-85
2023/10/10 06:15:43;;;;;;;12.95;7.97;;;15.20;99.90;;;;;;2087099;28;20029;-82
2023/10/10 06:16:44;;;;;;;16.38;8.20;;;15.20;99.90;;;;;;2087780;28;20033;-81
2023/10/10 06:17:58;;;;;;;10.35;7.63;;;15.20;99.90;;;;;;2084429;28;20028;-78
2023/10/10 06:19:01;;;;;;;13.30;8.27;;;15.30;99.90;;;;;;2087380;28;20563;-80
2023/10/10 06:20:02;;;;;;;13.15;7.78;;;15.20;99.90;;;;;;2084379;28;20030;-81
2023/10/10 06:21:07;;;;;;;14.98;8.63;;;15.20;99.90;;;;;;2095518;28;20028;-79
2023/10/10 06:22:08;;;;;;;13.02;8.40;;;15.20;99.90;;;;;;2087537;28;20396;-84
2023/10/10 06:23:17;;;;;;;13.27;7.72;;;15.20;99.90;;;;;;2086447;28;20659;-83
2023/10/10 06:24:18;;;;;;;11.48;7.53;;;15.30;99.90;;;;;;2086563;28;20037;-84
2023/10/10 06:25:18;;;;;;;14.07;7.90;;;15.30;99.90;;;;;;2087545;28;20032;-83
2023/10/10 06:26:21;;;;;;;13.20;7.50;;;15.20;99.90;;;;;;2092729;28;20080;-81
2023/10/10 06:27:24;;;;;;;11.88;7.72;;;15.30;99.90;;;;;;2097267;28;20044;-82
2023/10/10 06:28:28;;;;;;;12.23;8.07;;;15.30;99.90;;;;;;2098335;28;20031;-82
2023/10/10 06:29:29;;;;;;;13.93;7.80;;;15.30;99.90;;;;;;2095490;28;20822;-83
2023/10/10 06:30:30;;;;;;;11.50;7.53;;;15.30;99.90;;;;;;2096613;28;20033;-82
2023/10/10 06:31:42;;;;;;;12.52;7.80;;;15.30;99.90;;;;;;2100059;28;20522;-83
2023/10/10 06:32:49;;;;;;;22.02;10.55;;;15.30;99.90;;;;;;2084173;28;20029;-82
2023/10/10 06:33:50;;;;;;;28.77;13.05;;;15.30;99.90;;;;;;2080674;28;20061;-84
2023/10/10 06:35:04;;;;;;;22.42;10.57;;;15.30;99.90;;;;;;2093102;28;20116;-83
2023/10/10 06:37:26;;;;;;;12.07;7.90;;;15.30;99.90;;;;;;2083465;28;20066;-82
2023/10/10 06:38:27;;;;;;;12.70;7.93;;;15.40;99.90;;;;;;2084202;28;20025;-83
2023/10/10 06:39:32;;;;;;;13.10;7.80;;;15.40;99.90;;;;;;2092259;28;20404;-81
2023/10/10 06:40:33;;;;;;;12.65;7.82;;;15.40;99.90;;;;;;2083302;28;20111;-82
2023/10/10 06:41:54;;;;;;;13.75;7.88;;;15.40;99.90;;;;;;2083217;28;20032;-81
2023/10/10 06:43:00;;;;;;;11.40;7.72;;;15.40;99.90;;;;;;2092047;28;20428;-82
2023/10/10 06:44:01;;;;;;;15.52;7.72;;;15.50;99.90;;;;;;2088268;28;20491;-81
2023/10/10 06:45:08;;;;;;;14.00;8.32;;;15.50;99.90;;;;;;2083123;28;20112;-82
2023/10/10 06:46:16;;;;;;;12.30;7.75;;;15.50;99.90;;;;;;2084244;28;20021;-82
2023/10/10 06:47:17;;;;;;;11.30;8.02;;;15.50;99.90;;;;;;2089201;28;20031;-83
2023/10/10 06:48:21;;;;;;;14.60;8.02;;;15.50;99.90;;;;;;2092238;28;20031;-82
2023/10/10 06:49:23;;;;;;;12.43;7.75;;;15.50;99.90;;;;;;2092391;28;20066;-81
2023/10/10 06:50:23;;;;;;;13.90;8.60;;;15.50;99.90;;;;;;2075100;28;20029;-82
2023/10/10 06:51:24;;;;;;;16.02;8.27;;;15.50;99.90;;;;;;2074839;28;20030;-83
2023/10/10 06:52:27;;;;;;;14.60;8.43;;;15.50;99.90;;;;;;2082782;28;20508;-83
2023/10/10 06:53:36;;;;;;;12.45;8.13;;;15.50;99.90;;;;;;2083408;28;20483;-82
2023/10/10 06:54:44;;;;;;;15.20;8.57;;;15.60;99.90;;;;;;2092156;28;20028;-81
2023/10/10 06:55:45;;;;;;;16.15;9.27;;;15.60;99.90;;;;;;2085281;28;20108;-83
2023/10/10 06:57:59;;;;;;;15.30;8.45;;;15.60;99.90;;;;;;2092412;28;20389;-83
2023/10/10 06:59:01;;;;;;;13.85;8.48;;;15.60;99.90;;;;;;2080062;28;20279;-82
2023/10/10 07:00:20;;;;;;;15.30;8.57;;;15.70;99.90;;;;;;2080132;28;20075;-81
2023/10/10 07:01:21;;;;;;;11.98;8.73;;;15.70;99.90;;;;;;2080734;28;20518;-82
2023/10/10 07:02:21;;;;;;;13.80;9.20;;;15.70;99.90;;;;;;2092116;28;20016;-82
2023/10/10 07:03:30;;;;;;;13.95;9.07;;;15.70;99.90;;;;;;2082928;28;20056;-82
2023/10/10 07:04:35;;;;;;;16.50;9.18;;;15.80;99.90;;;;;;2084033;28;20480;-80
2023/10/10 07:05:39;;;;;;;13.73;9.15;;;15.80;99.90;;;;;;2091909;28;20567;-80
2023/10/10 07:06:44;;;;;;;14.82;9.15;;;15.80;99.90;;;;;;2091073;28;20028;-81
2023/10/10 07:07:46;;;;;;;14.52;9.48;;;15.70;99.90;;;;;;2092048;28;20028;-83
2023/10/10 07:09:03;;;;;;;15.38;9.63;;;15.80;99.90;;;;;;2091907;28;20099;-81
2023/10/10 07:10:09;;;;;;;14.32;9.73;;;15.70;99.90;;;;;;2083249;28;20029;-83
2023/10/10 07:11:20;;;;;;;15.75;9.70;;;15.70;99.90;;;;;;2079383;28;20025;-82
2023/10/10 07:12:20;;;;;;;;;;;15.70;99.90;;;;;;2076601;28;20044;-83
2023/10/10 07:13:29;;;;;;;17.17;10.27;;;15.70;99.90;;;;;;2080670;28;19999;-83
2023/10/10 07:14:29;;;;;;;15.60;10.70;;;15.70;99.90;;;;;;2092346;28;20115;-82
2023/10/10 07:15:34;;;;;;;18.67;10.75;;;15.70;99.90;;;;;;2091743;28;20113;-82
2023/10/10 07:16:35;;;;;;;14.73;9.57;;;15.70;99.90;;;;;;2092065;28;20037;-82
2023/10/10 07:17:38;;;;;;;15.82;9.98;;;15.80;99.90;;;;;;2082722;28;20099;-81
2023/10/10 07:18:40;;;;;;;14.27;9.55;;;15.80;99.90;;;;;;2074848;28;20551;-80
2023/10/10 07:21:30;;;;;;;16.80;10.35;;;16.00;99.90;;;;;;2079902;28;20033;-83
2023/10/10 07:22:33;;;;;;;19.60;13.30;;;16.00;99.90;;;;;;2074954;28;20048;-82
2023/10/10 07:23:38;;;;;;;20.50;12.50;;;16.00;99.90;;;;;;2065709;28;20044;-80
2023/10/10 07:24:42;;;;;;;18.80;11.20;;;16.00;99.90;;;;;;2075305;28;20120;-81
2023/10/10 07:25:57;;;;;;;17.23;10.13;;;16.00;99.90;;;;;;2062748;28;20032;-80
2023/10/10 07:27:00;;;;;;;17.33;10.82;;;15.90;99.90;;;;;;2077987;28;20288;-78
2023/10/10 07:28:01;;;;;;;21.15;11.05;;;15.90;99.90;;;;;;2091950;28;20286;-79
2023/10/10 07:29:26;;;;;;;19.13;12.27;;;15.90;99.90;;;;;;2091973;28;20556;-81
2023/10/10 07:30:33;;;;;;;19.60;11.73;;;15.90;99.90;;;;;;2079965;28;20092;-82
2023/10/10 07:31:34;;;;;;;17.00;9.90;;;15.90;99.90;;;;;;2080353;28;20029;-82
2023/10/10 07:32:38;;;;;;;34.65;20.83;;;16.00;99.90;;;;;;2088407;28;20570;-81
2023/10/10 07:33:40;;;;;;;23.23;16.10;;;16.10;99.90;;;;;;2081614;28;20083;-81
2023/10/10 07:34:42;;;;;;;18.13;10.80;;;16.10;99.90;;;;;;2082767;28;20044;-81
2023/10/10 07:35:44;;;;;;;17.90;11.27;;;16.10;99.90;;;;;;2090714;28;20528;-82
2023/10/10 07:36:50;;;;;;;16.77;10.20;;;16.10;99.90;;;;;;2078701;28;20127;-81
2023/10/10 07:37:52;;;;;;;13.70;9.45;;;16.20;99.90;;;;;;2079432;28;20029;-84
2023/10/10 07:38:54;;;;;;;13.98;9.73;;;16.10;99.90;;;;;;2084060;28;20557;-83
2023/10/10 07:39:55;;;;;;;17.42;10.30;;;16.10;99.90;;;;;;2079072;28;20081;-82
2023/10/10 07:40:56;;;;;;;16.45;9.70;;;16.10;99.90;;;;;;2081832;28;20114;-81
2023/10/10 07:41:57;;;;;;;15.18;9.27;;;16.10;99.90;;;;;;2091644;28;20832;-81
2023/10/10 07:43:03;;;;;;;12.13;9.27;;;16.10;99.90;;;;;;2083444;28;20087;-81
2023/10/10 07:44:05;;;;;;;13.23;9.73;;;16.00;99.90;;;;;;2089091;28;20037;-82
2023/10/10 07:45:15;;;;;;;17.08;9.45;;;16.10;99.90;;;;;;2093687;28;20074;-81
2023/10/10 07:46:22;;;;;;;14.57;9.20;;;16.10;99.90;;;;;;2092051;28;20143;-80
2023/10/10 07:47:27;;;;;;;16.63;9.43;;;16.20;99.90;;;;;;2091470;28;20526;-82
2023/10/10 07:49:28;;;;;;;11.90;9.55;;;16.20;99.90;;;;;;2077234;28;20451;-82
2023/10/10 07:50:35;;;;;;;14.35;9.00;;;16.30;99.90;;;;;;2084392;28;20686;-83
2023/10/10 07:51:49;;;;;;;14.32;9.13;;;16.30;99.90;;;;;;2093838;28;20032;-81
2023/10/10 07:52:50;;;;;;;13.55;9.52;;;16.30;99.90;;;;;;2092211;28;20507;-79
2023/10/10 07:53:59;;;;;;;15.93;9.05;;;16.30;99.90;;;;;;2086568;28;20025;-80
2023/10/10 07:55:04;;;;;;;15.32;9.35;;;16.30;99.90;;;;;;2079543;28;20064;-82
2023/10/10 07:56:04;;;;;;;14.82;9.63;;;16.30;99.90;;;;;;2088893;28;20047;-81
2023/10/10 07:57:11;;;;;;;14.90;9.20;;;16.30;99.90;;;;;;2077347;28;20017;-81
2023/10/10 07:58:13;;;;;;;16.58;8.90;;;16.30;99.90;;;;;;2075371;28;20033;-81
2023/10/10 07:59:18;;;;;;;16.25;8.55;;;16.40;99.90;;;;;;2086162;28;20028;-80
2023/10/10 08:00:24;;;;;;;13.82;8.77;;;16.40;99.90;;;;;;2097472;28;20115;-82
2023/10/10 08:01:24;;;;;;;16.40;8.40;;;16.50;99.90;;;;;;2082943;28;20451;-79
2023/10/10 08:02:31;;;;;;;15.90;8.70;;;16.50;99.90;;;;;;2082886;28;20024;-78
2023/10/10 08:03:32;;;;;;;12.10;8.70;;;16.60;99.90;;;;;;2090858;28;20033;-80
2023/10/10 08:04:32;;;;;;;17.35;9.20;;;16.50;99.90;;;;;;2085165;28;20032;-80
2023/10/10 08:05:33;;;;;;;15.90;9.30;;;16.50;99.90;;;;;;2095840;28;20039;-81
2023/10/10 08:06:34;;;;;;;14.05;8.75;;;16.50;99.90;;;;;;2097573;28;20230;-81
2023/10/10 08:07:35;;;;;;;12.63;9.18;;;16.40;99.90;;;;;;2094150;28;20376;-80